sensor_id;sensor_type;location;lat;lon;timestamp;P1;durP1;ratioP1;P2;durP2;ratioP2
8048;SDS011;20935;42.660;23.342;2023-11-22T00:02:21;30.83;;;21.53;;
8048;SDS011;20935;42.660;23.342;2023-11-22T00:05:13;31.37;;;20.37;;
8048;SDS011;20935;42.660;23.342;2023-11-22T00:07:59;28.43;;;19.40;;
8048;SDS011;20935;42.660;23.342;2023-11-22T00:10:45;30.67;;;19.97;;
8048;SDS011;20935;42.660;23.342;2023-11-22T00:13:30;29.03;;;21.07;;
8048;SDS011;20935;42.660;23.342;2023-11-22T00:16:16;28.63;;;20.90;;
8048;SDS011;20935;42.660;23.342;2023-11-22T00:19:01;32.10;;;20.30;;
8048;SDS011;20935;42.660;23.342;2023-11-22T00:21:47;32.37;;;19.67;;
8048;SDS011;20935;42.660;23.342;2023-11-22T00:24:32;28.43;;;19.50;;
8048;SDS011;20935;42.660;23.342;2023-11-22T00:27:21;31.97;;;20.57;;
8048;SDS011;20935;42.660;23.342;2023-11-22T00:30:07;25.47;;;19.30;;
8048;SDS011;20935;42.660;23.342;2023-11-22T00:32:53;28.33;;;19.30;;
8048;SDS011;20935;42.660;23.342;2023-11-22T00:35:39;25.00;;;19.23;;
8048;SDS011;20935;42.660;23.342;2023-11-22T00:38:24;28.57;;;19.23;;
8048;SDS011;20935;42.660;23.342;2023-11-22T00:41:09;22.70;;;18.07;;
8048;SDS011;20935;42.660;23.342;2023-11-22T00:43:56;29.50;;;18.70;;
8048;SDS011;20935;42.660;23.342;2023-11-22T00:46:41;25.33;;;16.60;;
8048;SDS011;20935;42.660;23.342;2023-11-22T00:49:29;25.77;;;16.93;;
8048;SDS011;20935;42.660;23.342;2023-11-22T00:52:14;26.60;;;18.10;;
8048;SDS011;20935;42.660;23.342;2023-11-22T00:54:59;23.70;;;16.73;;
8048;SDS011;20935;42.660;23.342;2023-11-22T00:57:44;27.40;;;18.43;;
8048;SDS011;20935;42.660;23.342;2023-11-22T01:00:31;24.47;;;17.17;;
8048;SDS011;20935;42.660;23.342;2023-11-22T01:03:16;28.03;;;19.23;;
8048;SDS011;20935;42.660;23.342;2023-11-22T01:06:01;26.37;;;18.57;;
8048;SDS011;20935;42.660;23.342;2023-11-22T01:08:47;27.63;;;18.90;;
8048;SDS011;20935;42.660;23.342;2023-11-22T01:11:32;30.77;;;19.40;;
8048;SDS011;20935;42.660;23.342;2023-11-22T01:14:20;28.40;;;20.13;;
8048;SDS011;20935;42.660;23.342;2023-11-22T01:17:07;28.50;;;18.10;;
8048;SDS011;20935;42.660;23.342;2023-11-22T01:19:55;26.33;;;19.03;;
8048;SDS011;20935;42.660;23.342;2023-11-22T01:22:45;24.03;;;18.70;;
8048;SDS011;20935;42.660;23.342;2023-11-22T01:25:30;25.07;;;18.90;;
8048;SDS011;20935;42.660;23.342;2023-11-22T01:28:15;28.83;;;18.97;;
8048;SDS011;20935;42.660;23.342;2023-11-22T01:31:01;22.57;;;16.93;;
8048;SDS011;20935;42.660;23.342;2023-11-22T01:33:48;25.30;;;18.07;;
8048;SDS011;20935;42.660;23.342;2023-11-22T01:36:33;26.17;;;18.60;;
8048;SDS011;20935;42.660;23.342;2023-11-22T01:39:19;26.87;;;18.50;;
8048;SDS011;20935;42.660;23.342;2023-11-22T01:42:04;24.67;;;17.83;;
8048;SDS011;20935;42.660;23.342;2023-11-22T01:44:50;25.83;;;17.77;;
8048;SDS011;20935;42.660;23.342;2023-11-22T01:47:36;24.60;;;18.63;;
8048;SDS011;20935;42.660;23.342;2023-11-22T01:50:23;26.70;;;18.13;;
8048;SDS011;20935;42.660;23.342;2023-11-22T01:53:08;24.50;;;16.73;;
8048;SDS011;20935;42.660;23.342;2023-11-22T01:55:53;25.20;;;18.07;;
8048;SDS011;20935;42.660;23.342;2023-11-22T01:58:40;22.50;;;17.10;;
8048;SDS011;20935;42.660;23.342;2023-11-22T02:01:25;27.37;;;18.97;;
8048;SDS011;20935;42.660;23.342;2023-11-22T02:04:11;25.87;;;17.60;;
8048;SDS011;20935;42.660;23.342;2023-11-22T02:06:59;25.73;;;17.77;;
8048;SDS011;20935;42.660;23.342;2023-11-22T02:09:44;26.67;;;18.63;;
8048;SDS011;20935;42.660;23.342;2023-11-22T02:12:29;27.23;;;17.77;;
8048;SDS011;20935;42.660;23.342;2023-11-22T02:15:14;27.00;;;18.30;;
8048;SDS011;20935;42.660;23.342;2023-11-22T02:18:00;24.80;;;17.73;;
8048;SDS011;20935;42.660;23.342;2023-11-22T02:20:45;26.57;;;18.20;;
8048;SDS011;20935;42.660;23.342;2023-11-22T02:23:35;25.53;;;17.23;;
8048;SDS011;20935;42.660;23.342;2023-11-22T02:26:23;20.77;;;16.27;;
8048;SDS011;20935;42.660;23.342;2023-11-22T02:29:08;25.40;;;18.37;;
8048;SDS011;20935;42.660;23.342;2023-11-22T02:31:53;24.50;;;17.73;;
8048;SDS011;20935;42.660;23.342;2023-11-22T02:34:38;22.13;;;17.90;;
8048;SDS011;20935;42.660;23.342;2023-11-22T02:37:23;26.10;;;17.63;;
8048;SDS011;20935;42.660;23.342;2023-11-22T02:40:12;22.00;;;17.27;;
8048;SDS011;20935;42.660;23.342;2023-11-22T02:42:58;25.23;;;17.23;;
8048;SDS011;20935;42.660;23.342;2023-11-22T02:45:44;26.03;;;17.37;;
8048;SDS011;20935;42.660;23.342;2023-11-22T02:48:30;24.60;;;16.83;;
8048;SDS011;20935;42.660;23.342;2023-11-22T02:51:15;24.83;;;18.03;;
8048;SDS011;20935;42.660;23.342;2023-11-22T02:54:00;23.23;;;15.63;;
8048;SDS011;20935;42.660;23.342;2023-11-22T02:56:47;22.90;;;16.70;;
8048;SDS011;20935;42.660;23.342;2023-11-22T02:59:32;22.50;;;17.47;;
8048;SDS011;20935;42.660;23.342;2023-11-22T03:02:17;21.93;;;15.97;;
8048;SDS011;20935;42.660;23.342;2023-11-22T03:05:03;22.90;;;17.17;;
8048;SDS011;20935;42.660;23.342;2023-11-22T03:07:48;20.57;;;15.67;;
8048;SDS011;20935;42.660;23.342;2023-11-22T03:10:34;20.70;;;16.20;;
8048;SDS011;20935;42.660;23.342;2023-11-22T03:13:21;21.07;;;16.03;;
8048;SDS011;20935;42.660;23.342;2023-11-22T03:16:06;30.43;;;17.90;;
8048;SDS011;20935;42.660;23.342;2023-11-22T03:18:52;25.77;;;16.40;;
8048;SDS011;20935;42.660;23.342;2023-11-22T03:21:38;23.80;;;16.70;;
8048;SDS011;20935;42.660;23.342;2023-11-22T03:24:23;22.20;;;16.43;;
8048;SDS011;20935;42.660;23.342;2023-11-22T03:27:08;23.30;;;17.57;;
8048;SDS011;20935;42.660;23.342;2023-11-22T03:29:55;21.77;;;16.60;;
8048;SDS011;20935;42.660;23.342;2023-11-22T03:32:40;24.13;;;16.53;;
8048;SDS011;20935;42.660;23.342;2023-11-22T03:35:26;19.97;;;15.07;;
8048;SDS011;20935;42.660;23.342;2023-11-22T03:38:13;22.27;;;16.83;;
8048;SDS011;20935;42.660;23.342;2023-11-22T03:40:58;22.00;;;16.17;;
8048;SDS011;20935;42.660;23.342;2023-11-22T03:43:43;24.77;;;16.33;;
8048;SDS011;20935;42.660;23.342;2023-11-22T03:46:30;23.30;;;16.17;;
8048;SDS011;20935;42.660;23.342;2023-11-22T03:49:15;23.37;;;17.07;;
8048;SDS011;20935;42.660;23.342;2023-11-22T03:52:00;22.80;;;15.90;;
8048;SDS011;20935;42.660;23.342;2023-11-22T03:54:46;23.83;;;16.47;;
8048;SDS011;20935;42.660;23.342;2023-11-22T03:57:31;23.27;;;16.47;;
8048;SDS011;20935;42.660;23.342;2023-11-22T04:00:16;24.07;;;17.40;;
8048;SDS011;20935;42.660;23.342;2023-11-22T04:03:03;24.53;;;16.97;;
8048;SDS011;20935;42.660;23.342;2023-11-22T04:05:48;23.00;;;16.20;;
8048;SDS011;20935;42.660;23.342;2023-11-22T04:08:35;20.23;;;15.63;;
8048;SDS011;20935;42.660;23.342;2023-11-22T04:11:21;23.80;;;16.70;;
8048;SDS011;20935;42.660;23.342;2023-11-22T04:14:06;19.20;;;15.20;;
8048;SDS011;20935;42.660;23.342;2023-11-22T04:16:54;19.53;;;15.47;;
8048;SDS011;20935;42.660;23.342;2023-11-22T04:19:41;27.47;;;16.97;;
8048;SDS011;20935;42.660;23.342;2023-11-22T04:22:26;26.93;;;16.23;;
8048;SDS011;20935;42.660;23.342;2023-11-22T04:25:12;25.50;;;16.80;;
8048;SDS011;20935;42.660;23.342;2023-11-22T04:28:03;21.10;;;16.07;;
8048;SDS011;20935;42.660;23.342;2023-11-22T04:30:49;22.73;;;14.83;;
8048;SDS011;20935;42.660;23.342;2023-11-22T04:33:34;24.43;;;15.73;;
8048;SDS011;20935;42.660;23.342;2023-11-22T04:36:21;20.90;;;16.13;;
8048;SDS011;20935;42.660;23.342;2023-11-22T04:39:06;19.77;;;15.17;;
8048;SDS011;20935;42.660;23.342;2023-11-22T04:41:52;21.67;;;15.40;;
8048;SDS011;20935;42.660;23.342;2023-11-22T04:44:37;19.83;;;15.60;;
8048;SDS011;20935;42.660;23.342;2023-11-22T04:47:22;22.70;;;16.20;;
8048;SDS011;20935;42.660;23.342;2023-11-22T04:50:07;21.00;;;15.33;;
8048;SDS011;20935;42.660;23.342;2023-11-22T04:52:56;21.90;;;15.13;;
8048;SDS011;20935;42.660;23.342;2023-11-22T04:55:41;24.30;;;16.57;;
8048;SDS011;20935;42.660;23.342;2023-11-22T04:58:26;21.57;;;16.73;;
8048;SDS011;20935;42.660;23.342;2023-11-22T05:01:11;21.90;;;15.73;;
8048;SDS011;20935;42.660;23.342;2023-11-22T05:03:57;24.17;;;16.53;;
8048;SDS011;20935;42.660;23.342;2023-11-22T05:06:42;31.27;;;19.90;;
8048;SDS011;20935;42.660;23.342;2023-11-22T05:09:29;33.80;;;18.77;;
8048;SDS011;20935;42.660;23.342;2023-11-22T05:12:17;24.97;;;18.03;;
8048;SDS011;20935;42.660;23.342;2023-11-22T05:15:03;20.73;;;14.80;;
8048;SDS011;20935;42.660;23.342;2023-11-22T05:17:48;23.23;;;16.63;;
8048;SDS011;20935;42.660;23.342;2023-11-22T05:20:36;26.67;;;17.47;;
8048;SDS011;20935;42.660;23.342;2023-11-22T05:23:21;24.13;;;17.13;;
8048;SDS011;20935;42.660;23.342;2023-11-22T05:26:08;23.10;;;17.63;;
8048;SDS011;20935;42.660;23.342;2023-11-22T05:28:53;27.77;;;18.60;;
8048;SDS011;20935;42.660;23.342;2023-11-22T05:31:38;33.03;;;20.37;;
8048;SDS011;20935;42.660;23.342;2023-11-22T05:34:24;28.57;;;19.97;;
8048;SDS011;20935;42.660;23.342;2023-11-22T05:37:09;25.83;;;18.67;;
8048;SDS011;20935;42.660;23.342;2023-11-22T05:39:54;29.47;;;18.57;;
8048;SDS011;20935;42.660;23.342;2023-11-22T05:42:41;22.83;;;16.70;;
8048;SDS011;20935;42.660;23.342;2023-11-22T05:45:26;29.20;;;17.70;;
8048;SDS011;20935;42.660;23.342;2023-11-22T05:48:11;29.30;;;19.63;;
8048;SDS011;20935;42.660;23.342;2023-11-22T05:50:57;26.90;;;17.63;;
8048;SDS011;20935;42.660;23.342;2023-11-22T05:53:42;33.20;;;18.93;;
8048;SDS011;20935;42.660;23.342;2023-11-22T05:56:28;28.33;;;19.27;;
8048;SDS011;20935;42.660;23.342;2023-11-22T05:59:15;29.77;;;17.93;;
8048;SDS011;20935;42.660;23.342;2023-11-22T06:02:00;22.23;;;17.30;;
8048;SDS011;20935;42.660;23.342;2023-11-22T06:04:45;28.17;;;17.97;;
8048;SDS011;20935;42.660;23.342;2023-11-22T06:07:30;23.93;;;18.57;;
8048;SDS011;20935;42.660;23.342;2023-11-22T06:10:16;22.07;;;16.90;;
8048;SDS011;20935;42.660;23.342;2023-11-22T06:13:00;25.83;;;17.57;;
8048;SDS011;20935;42.660;23.342;2023-11-22T06:15:47;26.90;;;17.17;;
8048;SDS011;20935;42.660;23.342;2023-11-22T06:18:32;26.17;;;18.30;;
8048;SDS011;20935;42.660;23.342;2023-11-22T06:21:18;22.47;;;18.63;;
8048;SDS011;20935;42.660;23.342;2023-11-22T06:24:03;21.40;;;17.77;;
8048;SDS011;20935;42.660;23.342;2023-11-22T06:26:52;22.10;;;16.77;;
8048;SDS011;20935;42.660;23.342;2023-11-22T06:29:37;22.67;;;16.23;;
8048;SDS011;20935;42.660;23.342;2023-11-22T06:32:24;24.27;;;16.63;;
8048;SDS011;20935;42.660;23.342;2023-11-22T06:35:09;24.13;;;17.73;;
8048;SDS011;20935;42.660;23.342;2023-11-22T06:37:55;26.73;;;18.40;;
8048;SDS011;20935;42.660;23.342;2023-11-22T06:40:39;25.63;;;18.47;;
8048;SDS011;20935;42.660;23.342;2023-11-22T06:43:24;23.30;;;18.40;;
8048;SDS011;20935;42.660;23.342;2023-11-22T06:46:10;23.70;;;18.10;;
8048;SDS011;20935;42.660;23.342;2023-11-22T06:48:56;24.67;;;18.50;;
8048;SDS011;20935;42.660;23.342;2023-11-22T06:51:44;25.33;;;17.83;;
8048;SDS011;20935;42.660;23.342;2023-11-22T06:54:30;24.13;;;17.23;;
8048;SDS011;20935;42.660;23.342;2023-11-22T06:57:16;23.43;;;17.17;;
8048;SDS011;20935;42.660;23.342;2023-11-22T07:00:12;23.23;;;17.70;;
8048;SDS011;20935;42.660;23.342;2023-11-22T07:02:57;22.13;;;16.07;;
8048;SDS011;20935;42.660;23.342;2023-11-22T07:05:43;23.13;;;17.57;;
8048;SDS011;20935;42.660;23.342;2023-11-22T07:08:28;26.70;;;18.87;;
8048;SDS011;20935;42.660;23.342;2023-11-22T07:11:20;24.93;;;18.40;;
8048;SDS011;20935;42.660;23.342;2023-11-22T07:14:06;27.20;;;18.80;;
8048;SDS011;20935;42.660;23.342;2023-11-22T07:16:52;22.80;;;17.90;;
8048;SDS011;20935;42.660;23.342;2023-11-22T07:19:37;28.50;;;18.27;;
8048;SDS011;20935;42.660;23.342;2023-11-22T07:22:24;25.30;;;18.80;;
8048;SDS011;20935;42.660;23.342;2023-11-22T07:25:10;24.97;;;19.50;;
8048;SDS011;20935;42.660;23.342;2023-11-22T07:28:02;25.13;;;18.37;;
8048;SDS011;20935;42.660;23.342;2023-11-22T07:30:47;25.40;;;19.07;;
8048;SDS011;20935;42.660;23.342;2023-11-22T07:33:33;21.90;;;17.63;;
8048;SDS011;20935;42.660;23.342;2023-11-22T07:36:18;25.50;;;18.67;;
8048;SDS011;20935;42.660;23.342;2023-11-22T07:39:05;23.80;;;17.70;;
8048;SDS011;20935;42.660;23.342;2023-11-22T07:41:50;25.83;;;19.10;;
8048;SDS011;20935;42.660;23.342;2023-11-22T07:44:36;25.40;;;18.67;;
8048;SDS011;20935;42.660;23.342;2023-11-22T07:47:21;23.30;;;16.97;;
8048;SDS011;20935;42.660;23.342;2023-11-22T07:50:08;23.40;;;17.30;;
8048;SDS011;20935;42.660;23.342;2023-11-22T07:52:55;22.97;;;16.17;;
8048;SDS011;20935;42.660;23.342;2023-11-22T07:55:42;23.20;;;17.43;;
8048;SDS011;20935;42.660;23.342;2023-11-22T07:58:27;27.50;;;17.30;;
8048;SDS011;20935;42.660;23.342;2023-11-22T08:01:12;22.63;;;15.83;;
8048;SDS011;20935;42.660;23.342;2023-11-22T08:04:02;19.57;;;15.40;;
8048;SDS011;20935;42.660;23.342;2023-11-22T08:06:50;21.00;;;15.17;;
8048;SDS011;20935;42.660;23.342;2023-11-22T08:09:37;22.27;;;14.60;;
8048;SDS011;20935;42.660;23.342;2023-11-22T08:12:26;18.47;;;14.60;;
8048;SDS011;20935;42.660;23.342;2023-11-22T08:15:13;18.17;;;14.20;;
8048;SDS011;20935;42.660;23.342;2023-11-22T08:17:59;20.47;;;15.03;;
8048;SDS011;20935;42.660;23.342;2023-11-22T08:20:44;19.60;;;14.67;;
8048;SDS011;20935;42.660;23.342;2023-11-22T08:23:29;18.07;;;14.60;;
8048;SDS011;20935;42.660;23.342;2023-11-22T08:26:15;21.70;;;14.70;;
8048;SDS011;20935;42.660;23.342;2023-11-22T08:29:02;22.50;;;16.00;;
8048;SDS011;20935;42.660;23.342;2023-11-22T08:31:47;20.73;;;15.40;;
8048;SDS011;20935;42.660;23.342;2023-11-22T08:34:35;21.20;;;15.27;;
8048;SDS011;20935;42.660;23.342;2023-11-22T08:37:19;20.27;;;15.27;;
8048;SDS011;20935;42.660;23.342;2023-11-22T08:40:06;17.33;;;14.70;;
8048;SDS011;20935;42.660;23.342;2023-11-22T08:42:51;18.70;;;15.73;;
8048;SDS011;20935;42.660;23.342;2023-11-22T08:45:38;23.90;;;17.07;;
8048;SDS011;20935;42.660;23.342;2023-11-22T08:48:23;21.93;;;16.63;;
8048;SDS011;20935;42.660;23.342;2023-11-22T08:51:08;21.27;;;16.03;;
8048;SDS011;20935;42.660;23.342;2023-11-22T08:53:53;19.10;;;15.37;;
8048;SDS011;20935;42.660;23.342;2023-11-22T08:56:38;23.27;;;16.90;;
8048;SDS011;20935;42.660;23.342;2023-11-22T08:59:24;27.33;;;17.00;;
8048;SDS011;20935;42.660;23.342;2023-11-22T09:02:10;21.63;;;16.53;;
8048;SDS011;20935;42.660;23.342;2023-11-22T09:04:57;21.60;;;16.57;;
8048;SDS011;20935;42.660;23.342;2023-11-22T09:07:42;21.67;;;16.43;;
8048;SDS011;20935;42.660;23.342;2023-11-22T09:10:28;21.87;;;16.63;;
8048;SDS011;20935;42.660;23.342;2023-11-22T09:13:14;23.70;;;15.77;;
8048;SDS011;20935;42.660;23.342;2023-11-22T09:15:59;21.63;;;16.40;;
8048;SDS011;20935;42.660;23.342;2023-11-22T09:18:46;18.70;;;15.27;;
8048;SDS011;20935;42.660;23.342;2023-11-22T09:21:32;19.80;;;16.67;;
8048;SDS011;20935;42.660;23.342;2023-11-22T09:24:17;18.80;;;15.00;;
8048;SDS011;20935;42.660;23.342;2023-11-22T09:27:03;20.07;;;16.43;;
8048;SDS011;20935;42.660;23.342;2023-11-22T09:29:50;22.53;;;16.73;;
8048;SDS011;20935;42.660;23.342;2023-11-22T09:32:35;27.23;;;18.20;;
8048;SDS011;20935;42.660;23.342;2023-11-22T09:35:23;28.37;;;19.00;;
8048;SDS011;20935;42.660;23.342;2023-11-22T09:38:09;29.30;;;21.87;;
8048;SDS011;20935;42.660;23.342;2023-11-22T09:40:55;53.07;;;22.50;;
8048;SDS011;20935;42.660;23.342;2023-11-22T09:43:40;29.93;;;20.77;;
8048;SDS011;20935;42.660;23.342;2023-11-22T09:46:26;25.47;;;20.03;;
8048;SDS011;20935;42.660;23.342;2023-11-22T09:49:14;26.90;;;19.57;;
8048;SDS011;20935;42.660;23.342;2023-11-22T09:52:01;28.30;;;20.80;;
8048;SDS011;20935;42.660;23.342;2023-11-22T09:54:47;29.00;;;19.70;;
8048;SDS011;20935;42.660;23.342;2023-11-22T09:57:34;25.90;;;20.10;;
8048;SDS011;20935;42.660;23.342;2023-11-22T10:00:22;30.53;;;19.40;;
8048;SDS011;20935;42.660;23.342;2023-11-22T10:03:11;26.90;;;19.50;;
8048;SDS011;20935;42.660;23.342;2023-11-22T10:05:58;28.30;;;20.30;;
8048;SDS011;20935;42.660;23.342;2023-11-22T10:08:45;31.10;;;21.27;;
8048;SDS011;20935;42.660;23.342;2023-11-22T10:11:31;23.23;;;19.67;;
8048;SDS011;20935;42.660;23.342;2023-11-22T10:14:22;29.83;;;21.37;;
8048;SDS011;20935;42.660;23.342;2023-11-22T10:17:07;31.20;;;20.67;;
8048;SDS011;20935;42.660;23.342;2023-11-22T10:19:52;30.93;;;21.97;;
8048;SDS011;20935;42.660;23.342;2023-11-22T10:22:45;29.30;;;21.37;;
8048;SDS011;20935;42.660;23.342;2023-11-22T10:25:36;28.17;;;21.23;;
8048;SDS011;20935;42.660;23.342;2023-11-22T10:28:21;28.63;;;22.27;;
8048;SDS011;20935;42.660;23.342;2023-11-22T10:31:07;31.13;;;23.50;;
8048;SDS011;20935;42.660;23.342;2023-11-22T10:33:53;27.60;;;22.90;;
8048;SDS011;20935;42.660;23.342;2023-11-22T10:36:39;28.27;;;22.17;;
8048;SDS011;20935;42.660;23.342;2023-11-22T10:39:24;35.23;;;24.23;;
8048;SDS011;20935;42.660;23.342;2023-11-22T10:42:11;25.90;;;21.07;;
8048;SDS011;20935;42.660;23.342;2023-11-22T10:44:58;28.77;;;21.67;;
8048;SDS011;20935;42.660;23.342;2023-11-22T10:47:45;32.43;;;22.60;;
8048;SDS011;20935;42.660;23.342;2023-11-22T10:50:31;29.37;;;23.70;;
8048;SDS011;20935;42.660;23.342;2023-11-22T10:53:19;32.77;;;23.23;;
8048;SDS011;20935;42.660;23.342;2023-11-22T10:56:07;30.87;;;23.57;;
8048;SDS011;20935;42.660;23.342;2023-11-22T10:58:57;32.87;;;24.67;;
8048;SDS011;20935;42.660;23.342;2023-11-22T11:01:45;34.73;;;25.37;;
8048;SDS011;20935;42.660;23.342;2023-11-22T11:04:33;32.73;;;24.57;;
8048;SDS011;20935;42.660;23.342;2023-11-22T11:07:20;31.13;;;24.17;;
8048;SDS011;20935;42.660;23.342;2023-11-22T11:10:10;36.33;;;24.80;;
8048;SDS011;20935;42.660;23.342;2023-11-22T11:12:56;33.33;;;24.27;;
8048;SDS011;20935;42.660;23.342;2023-11-22T11:15:46;34.57;;;25.03;;
8048;SDS011;20935;42.660;23.342;2023-11-22T11:18:35;34.50;;;25.17;;
8048;SDS011;20935;42.660;23.342;2023-11-22T11:21:21;34.17;;;24.47;;
8048;SDS011;20935;42.660;23.342;2023-11-22T11:24:06;33.37;;;23.17;;
8048;SDS011;20935;42.660;23.342;2023-11-22T11:26:51;33.37;;;23.60;;
8048;SDS011;20935;42.660;23.342;2023-11-22T11:29:38;31.60;;;24.53;;
8048;SDS011;20935;42.660;23.342;2023-11-22T11:32:34;31.10;;;23.70;;
8048;SDS011;20935;42.660;23.342;2023-11-22T11:35:22;33.00;;;25.23;;
8048;SDS011;20935;42.660;23.342;2023-11-22T11:38:26;30.73;;;24.07;;
8048;SDS011;20935;42.660;23.342;2023-11-22T11:41:12;33.03;;;24.13;;
8048;SDS011;20935;42.660;23.342;2023-11-22T11:43:58;31.07;;;24.37;;
8048;SDS011;20935;42.660;23.342;2023-11-22T11:46:43;34.37;;;24.10;;
8048;SDS011;20935;42.660;23.342;2023-11-22T11:49:30;30.57;;;23.87;;
8048;SDS011;20935;42.660;23.342;2023-11-22T11:52:15;26.57;;;21.43;;
8048;SDS011;20935;42.660;23.342;2023-11-22T11:55:00;31.63;;;22.43;;
8048;SDS011;20935;42.660;23.342;2023-11-22T11:57:45;29.70;;;21.67;;
8048;SDS011;20935;42.660;23.342;2023-11-22T12:00:31;25.57;;;21.07;;
8048;SDS011;20935;42.660;23.342;2023-11-22T12:03:16;25.73;;;21.50;;
8048;SDS011;20935;42.660;23.342;2023-11-22T12:06:06;33.57;;;21.10;;
8048;SDS011;20935;42.660;23.342;2023-11-22T12:08:52;28.13;;;20.70;;
8048;SDS011;20935;42.660;23.342;2023-11-22T12:11:37;27.53;;;20.90;;
8048;SDS011;20935;42.660;23.342;2023-11-22T12:14:23;26.30;;;20.70;;
8048;SDS011;20935;42.660;23.342;2023-11-22T12:17:09;23.93;;;19.40;;
8048;SDS011;20935;42.660;23.342;2023-11-22T12:20:08;27.77;;;20.27;;
8048;SDS011;20935;42.660;23.342;2023-11-22T12:22:54;26.07;;;19.93;;
8048;SDS011;20935;42.660;23.342;2023-11-22T12:25:39;27.47;;;21.00;;
8048;SDS011;20935;42.660;23.342;2023-11-22T12:28:25;29.17;;;20.33;;
8048;SDS011;20935;42.660;23.342;2023-11-22T12:31:11;27.53;;;21.20;;
8048;SDS011;20935;42.660;23.342;2023-11-22T12:33:56;25.80;;;19.70;;
8048;SDS011;20935;42.660;23.342;2023-11-22T12:36:43;23.27;;;19.40;;
8048;SDS011;20935;42.660;23.342;2023-11-22T12:39:30;25.13;;;19.63;;
8048;SDS011;20935;42.660;23.342;2023-11-22T12:42:16;24.77;;;19.20;;
8048;SDS011;20935;42.660;23.342;2023-11-22T12:45:01;25.23;;;17.97;;
8048;SDS011;20935;42.660;23.342;2023-11-22T12:47:47;24.37;;;17.77;;
8048;SDS011;20935;42.660;23.342;2023-11-22T12:50:33;22.10;;;16.47;;
8048;SDS011;20935;42.660;23.342;2023-11-22T12:53:21;20.00;;;16.70;;
8048;SDS011;20935;42.660;23.342;2023-11-22T12:56:09;20.40;;;17.50;;
8048;SDS011;20935;42.660;23.342;2023-11-22T12:58:56;20.93;;;16.13;;
8048;SDS011;20935;42.660;23.342;2023-11-22T13:01:41;19.70;;;17.00;;
8048;SDS011;20935;42.660;23.342;2023-11-22T13:04:26;26.73;;;20.07;;
8048;SDS011;20935;42.660;23.342;2023-11-22T13:07:13;28.73;;;20.87;;
8048;SDS011;20935;42.660;23.342;2023-11-22T13:10:00;28.27;;;21.23;;
8048;SDS011;20935;42.660;23.342;2023-11-22T13:12:50;26.07;;;21.63;;
8048;SDS011;20935;42.660;23.342;2023-11-22T13:15:36;30.67;;;21.93;;
8048;SDS011;20935;42.660;23.342;2023-11-22T13:18:23;26.73;;;22.20;;
8048;SDS011;20935;42.660;23.342;2023-11-22T13:21:11;31.60;;;23.63;;
8048;SDS011;20935;42.660;23.342;2023-11-22T13:23:58;34.37;;;23.80;;
8048;SDS011;20935;42.660;23.342;2023-11-22T13:26:45;35.57;;;24.70;;
8048;SDS011;20935;42.660;23.342;2023-11-22T13:29:33;34.83;;;25.80;;
8048;SDS011;20935;42.660;23.342;2023-11-22T13:32:20;36.37;;;25.23;;
8048;SDS011;20935;42.660;23.342;2023-11-22T13:35:08;34.37;;;25.40;;
8048;SDS011;20935;42.660;23.342;2023-11-22T13:38:00;32.13;;;24.87;;
8048;SDS011;20935;42.660;23.342;2023-11-22T13:40:47;33.20;;;26.87;;
8048;SDS011;20935;42.660;23.342;2023-11-22T13:43:34;35.30;;;26.20;;
8048;SDS011;20935;42.660;23.342;2023-11-22T13:46:22;37.13;;;25.50;;
8048;SDS011;20935;42.660;23.342;2023-11-22T13:49:09;41.60;;;26.83;;
8048;SDS011;20935;42.660;23.342;2023-11-22T13:51:56;34.33;;;24.77;;
8048;SDS011;20935;42.660;23.342;2023-11-22T13:54:43;37.10;;;26.90;;
8048;SDS011;20935;42.660;23.342;2023-11-22T13:57:30;38.30;;;25.90;;
8048;SDS011;20935;42.660;23.342;2023-11-22T14:00:17;34.47;;;25.50;;
8048;SDS011;20935;42.660;23.342;2023-11-22T14:03:06;34.73;;;25.27;;
8048;SDS011;20935;42.660;23.342;2023-11-22T14:05:53;33.77;;;23.33;;
8048;SDS011;20935;42.660;23.342;2023-11-22T14:08:40;27.20;;;21.87;;
8048;SDS011;20935;42.660;23.342;2023-11-22T14:11:26;31.97;;;21.07;;
8048;SDS011;20935;42.660;23.342;2023-11-22T14:14:13;27.07;;;19.57;;
8048;SDS011;20935;42.660;23.342;2023-11-22T14:17:00;28.50;;;19.20;;
8048;SDS011;20935;42.660;23.342;2023-11-22T14:19:48;29.07;;;18.83;;
8048;SDS011;20935;42.660;23.342;2023-11-22T14:22:35;27.63;;;18.87;;
8048;SDS011;20935;42.660;23.342;2023-11-22T14:25:22;26.13;;;18.00;;
8048;SDS011;20935;42.660;23.342;2023-11-22T14:28:09;22.73;;;16.33;;
8048;SDS011;20935;42.660;23.342;2023-11-22T14:30:55;23.07;;;16.47;;
8048;SDS011;20935;42.660;23.342;2023-11-22T14:33:44;23.67;;;15.47;;
8048;SDS011;20935;42.660;23.342;2023-11-22T14:36:32;20.50;;;14.23;;
8048;SDS011;20935;42.660;23.342;2023-11-22T14:39:19;28.93;;;13.70;;
8048;SDS011;20935;42.660;23.342;2023-11-22T14:42:06;18.73;;;13.23;;
8048;SDS011;20935;42.660;23.342;2023-11-22T14:44:53;20.90;;;14.00;;
8048;SDS011;20935;42.660;23.342;2023-11-22T14:47:40;19.47;;;14.73;;
8048;SDS011;20935;42.660;23.342;2023-11-22T14:50:30;21.47;;;13.60;;
8048;SDS011;20935;42.660;23.342;2023-11-22T14:53:21;20.37;;;14.90;;
8048;SDS011;20935;42.660;23.342;2023-11-22T14:56:10;23.97;;;14.27;;
8048;SDS011;20935;42.660;23.342;2023-11-22T14:58:57;21.43;;;13.53;;
8048;SDS011;20935;42.660;23.342;2023-11-22T15:01:45;17.00;;;11.97;;
8048;SDS011;20935;42.660;23.342;2023-11-22T15:04:32;19.30;;;11.47;;
8048;SDS011;20935;42.660;23.342;2023-11-22T15:07:21;14.00;;;10.97;;
8048;SDS011;20935;42.660;23.342;2023-11-22T15:10:13;18.40;;;11.47;;
8048;SDS011;20935;42.660;23.342;2023-11-22T15:13:02;22.80;;;11.73;;
8048;SDS011;20935;42.660;23.342;2023-11-22T15:15:49;13.97;;;11.07;;
8048;SDS011;20935;42.660;23.342;2023-11-22T15:18:36;15.87;;;11.60;;
8048;SDS011;20935;42.660;23.342;2023-11-22T15:21:24;18.93;;;10.80;;
8048;SDS011;20935;42.660;23.342;2023-11-22T15:24:11;18.23;;;11.20;;
8048;SDS011;20935;42.660;23.342;2023-11-22T15:27:00;15.57;;;11.57;;
8048;SDS011;20935;42.660;23.342;2023-11-22T15:29:47;14.00;;;11.50;;
8048;SDS011;20935;42.660;23.342;2023-11-22T15:32:34;17.87;;;11.73;;
8048;SDS011;20935;42.660;23.342;2023-11-22T15:35:21;14.77;;;12.07;;
8048;SDS011;20935;42.660;23.342;2023-11-22T15:38:08;15.10;;;11.07;;
8048;SDS011;20935;42.660;23.342;2023-11-22T15:40:55;15.97;;;11.60;;
8048;SDS011;20935;42.660;23.342;2023-11-22T15:43:43;22.20;;;12.27;;
8048;SDS011;20935;42.660;23.342;2023-11-22T15:46:30;19.20;;;13.33;;
8048;SDS011;20935;42.660;23.342;2023-11-22T15:49:17;14.53;;;12.33;;
8048;SDS011;20935;42.660;23.342;2023-11-22T15:52:05;17.23;;;12.67;;
8048;SDS011;20935;42.660;23.342;2023-11-22T15:54:52;16.43;;;12.67;;
8048;SDS011;20935;42.660;23.342;2023-11-22T15:57:39;20.20;;;12.93;;
8048;SDS011;20935;42.660;23.342;2023-11-22T16:00:27;18.03;;;13.73;;
8048;SDS011;20935;42.660;23.342;2023-11-22T16:03:14;15.07;;;11.53;;
8048;SDS011;20935;42.660;23.342;2023-11-22T16:06:03;16.47;;;11.80;;
8048;SDS011;20935;42.660;23.342;2023-11-22T16:08:50;16.57;;;10.73;;
8048;SDS011;20935;42.660;23.342;2023-11-22T16:11:40;13.37;;;9.17;;
8048;SDS011;20935;42.660;23.342;2023-11-22T16:14:28;12.33;;;8.20;;